Главная страница
METAR-TAF:

METAR-TAF

Аэропорты :

Шёвде, Швеция

широта: 58-27N, долгота: 013-58E, высота над уровнем моря: 98 м

Текущие метеонаблюдения

Эта сводка был подготовлена 18 минут назад, в 21:20 UTC
Ветер 1 Узел от южный
Температура 2°C
Влажность 80%
Давление 1037 hPa
Видимость 10 км и более

METAR: ESGR 182120Z AUTO 19001KT 9999 NCD 02/M01 Q1037

Время: 23:38 (21:38 UTC)


TAF: отсутствует

Метеонаблюдения и прогнозы для более 4000 аэропортов (сводки METAR и TAF).

Имеющиеся станции представлены на карте желтыми и красными точками.

Чтобы увидеть название станции, наведите на нее мышь.

Затем щелкните, чтобы увидеть метеонаблюдения и метеопрогнозы.

Управление картой: чтобы увеличить масштаб, щелкните зеленые кнопки с черным крестиком; чтобы уменьшить масштаб, щелкните зеленую кнопку с тире; для просмотра соседних карт щелкайте зеленые стрелки.


METAR-TAF: